createdAt,value
2023-05-20T00:00:12.570Z,100.00
2023-05-20T00:03:06.729Z,100.00
2023-05-20T00:05:40.551Z,100.00
2023-05-20T00:08:14.263Z,100.00
2023-05-20T00:10:47.483Z,100.00
2023-05-20T00:13:21.592Z,100.00
2023-05-20T00:15:55.410Z,100.00
2023-05-20T00:18:29.603Z,100.00
2023-05-20T00:21:03.897Z,100.00
2023-05-20T00:23:37.623Z,100.00
2023-05-20T00:26:10.735Z,100.00
2023-05-20T00:28:44.171Z,100.00
2023-05-20T00:31:17.952Z,100.00
2023-05-20T00:33:52.305Z,100.00
2023-05-20T00:36:27.675Z,100.00
2023-05-20T00:39:02.397Z,100.00
2023-05-20T00:41:35.824Z,100.00
2023-05-20T00:44:10.411Z,100.00
2023-05-20T00:46:44.405Z,100.00
2023-05-20T00:49:19.161Z,100.00
2023-05-20T00:51:52.710Z,100.00
2023-05-20T00:54:26.701Z,100.00
2023-05-20T00:57:03.349Z,100.00
2023-05-20T00:59:38.146Z,100.00
2023-05-20T01:02:12.968Z,100.00
2023-05-20T01:04:47.786Z,100.00
2023-05-20T01:07:22.711Z,100.00
2023-05-20T01:09:56.836Z,100.00
2023-05-20T01:12:33.416Z,100.00
2023-05-20T01:15:12.643Z,100.00
2023-05-20T01:17:48.197Z,100.00
2023-05-20T01:20:23.136Z,100.00
2023-05-20T01:22:58.664Z,100.00
2023-05-20T01:25:32.729Z,100.00
2023-05-20T01:28:07.569Z,100.00
2023-05-20T01:30:46.519Z,100.00
2023-05-20T01:33:25.855Z,100.00
2023-05-20T01:36:00.610Z,100.00
2023-05-20T01:38:35.249Z,100.00
2023-05-20T01:41:09.413Z,100.00
2023-05-20T01:43:44.031Z,100.00
2023-05-20T01:46:18.574Z,100.00
2023-05-20T01:48:53.110Z,100.00
2023-05-20T01:51:26.990Z,100.00
2023-05-20T01:54:00.996Z,100.00
2023-05-20T01:56:34.567Z,100.00
2023-05-20T01:59:09.729Z,100.00
2023-05-20T02:01:43.544Z,100.00
2023-05-20T02:04:19.501Z,100.00
2023-05-20T02:06:53.236Z,100.00
2023-05-20T02:09:30.053Z,100.00
2023-05-20T02:12:03.915Z,100.00
2023-05-20T02:14:37.579Z,100.00
2023-05-20T02:17:11.814Z,100.00
2023-05-20T02:19:46.067Z,100.00
2023-05-20T02:22:19.817Z,100.00
2023-05-20T02:24:53.340Z,100.00
2023-05-20T02:27:26.936Z,100.00
2023-05-20T02:30:01.593Z,100.00
2023-05-20T02:32:36.311Z,100.00
2023-05-20T02:35:11.898Z,100.00
2023-05-20T02:37:46.013Z,100.00
2023-05-20T02:40:20.359Z,100.00
2023-05-20T02:42:54.355Z,100.00
2023-05-20T02:45:28.240Z,100.00
2023-05-20T02:48:02.431Z,100.00
2023-05-20T02:50:39.559Z,100.00
2023-05-20T02:53:13.671Z,100.00
2023-05-20T02:55:47.484Z,100.00
2023-05-20T02:58:26.547Z,100.00
2023-05-20T03:01:00.479Z,100.00
2023-05-20T03:03:34.969Z,100.00
2023-05-20T03:06:08.677Z,100.00
2023-05-20T03:08:43.585Z,100.00
2023-05-20T03:11:17.142Z,100.00
2023-05-20T03:13:50.750Z,100.00
2023-05-20T03:16:25.455Z,100.00
2023-05-20T03:18:59.586Z,100.00
2023-05-20T03:21:34.336Z,100.00
2023-05-20T03:24:09.744Z,100.00
2023-05-20T03:26:44.119Z,100.00
2023-05-20T03:29:18.113Z,100.00
2023-05-20T03:31:52.171Z,100.00
2023-05-20T03:34:28.161Z,100.00
2023-05-20T03:37:01.653Z,100.00
2023-05-20T03:39:36.685Z,100.00
2023-05-20T03:42:10.948Z,100.00
2023-05-20T03:44:44.313Z,100.00
2023-05-20T03:47:18.502Z,100.00
2023-05-20T03:49:52.721Z,100.00
2023-05-20T03:52:26.538Z,100.00
2023-05-20T03:55:01.393Z,100.00
2023-05-20T03:57:36.844Z,100.00
2023-05-20T04:00:14.823Z,100.00
2023-05-20T04:02:51.597Z,100.00
2023-05-20T04:05:26.882Z,100.00
2023-05-20T04:08:01.239Z,100.00
2023-05-20T04:10:35.331Z,100.00
2023-05-20T04:13:09.154Z,100.00
2023-05-20T04:15:43.259Z,100.00
2023-05-20T04:18:17.352Z,100.00
2023-05-20T04:20:51.805Z,100.00
2023-05-20T04:23:26.194Z,100.00
2023-05-20T04:26:02.891Z,100.00
2023-05-20T04:28:37.950Z,100.00
2023-05-20T04:31:13.051Z,100.00
2023-05-20T04:33:47.061Z,100.00
2023-05-20T04:36:21.074Z,100.00
2023-05-20T04:38:55.484Z,100.00
2023-05-20T04:41:29.413Z,100.00
2023-05-20T04:44:04.267Z,100.00
2023-05-20T04:46:38.603Z,100.00
2023-05-20T04:49:12.907Z,100.00
2023-05-20T04:51:50.327Z,100.00
2023-05-20T04:54:25.585Z,100.00
2023-05-20T04:56:59.698Z,100.00
2023-05-20T04:59:33.856Z,100.00
2023-05-20T05:02:08.266Z,100.00
2023-05-20T05:04:41.968Z,100.00
2023-05-20T05:07:15.828Z,100.00
2023-05-20T05:09:49.928Z,100.00
2023-05-20T05:12:23.855Z,100.00
2023-05-20T05:14:59.065Z,100.00
2023-05-20T05:17:32.977Z,100.00
2023-05-20T05:20:10.574Z,100.00
2023-05-20T05:22:45.742Z,100.00
2023-05-20T05:25:19.986Z,100.00
2023-05-20T05:27:55.656Z,100.00
2023-05-20T05:30:30.132Z,100.00
2023-05-20T05:33:04.534Z,100.00
2023-05-20T05:35:38.655Z,100.00
2023-05-20T05:38:12.737Z,100.00
2023-05-20T05:40:46.615Z,100.00
2023-05-20T05:43:20.273Z,100.00
2023-05-20T05:45:54.504Z,100.00
2023-05-20T05:48:29.003Z,100.00
2023-05-20T05:51:02.710Z,100.00
2023-05-20T05:53:37.438Z,100.00
2023-05-20T05:56:11.269Z,100.00
2023-05-20T05:58:48.620Z,100.00
2023-05-20T06:01:23.657Z,100.00
2023-05-20T06:03:58.812Z,100.00
2023-05-20T06:06:33.041Z,100.00
2023-05-20T06:09:06.988Z,100.00
2023-05-20T06:11:42.491Z,100.00
2023-05-20T06:14:17.463Z,100.00
2023-05-20T06:16:52.554Z,100.00
2023-05-20T06:19:28.518Z,100.00
2023-05-20T06:22:03.016Z,100.00
2023-05-20T06:24:37.386Z,100.00
2023-05-20T06:27:11.219Z,100.00
2023-05-20T06:29:45.389Z,100.00
2023-05-20T06:32:19.760Z,100.00
2023-05-20T06:34:53.562Z,100.00
2023-05-20T06:37:26.996Z,100.00
2023-05-20T06:40:02.686Z,100.00
2023-05-20T06:42:36.690Z,100.00
2023-05-20T06:45:14.112Z,100.00
2023-05-20T06:47:50.565Z,100.00
2023-05-20T06:50:25.237Z,100.00
2023-05-20T06:52:59.420Z,100.00
2023-05-20T06:55:33.907Z,100.00
2023-05-20T06:58:08.831Z,100.00
2023-05-20T07:00:44.320Z,100.00
2023-05-20T07:03:18.538Z,100.00
2023-05-20T07:05:54.682Z,100.00
2023-05-20T07:08:29.764Z,100.00
2023-05-20T07:11:02.930Z,100.00
2023-05-20T07:13:37.637Z,100.00
2023-05-20T07:16:12.073Z,100.00
2023-05-20T07:18:49.901Z,100.00
2023-05-20T07:21:25.516Z,100.00
2023-05-20T07:24:21.620Z,100.00
2023-05-20T07:26:56.152Z,100.00
2023-05-20T07:29:30.827Z,100.00
2023-05-20T07:32:06.769Z,100.00
2023-05-20T07:34:41.284Z,100.00
2023-05-20T07:37:16.704Z,100.00
2023-05-20T07:39:50.710Z,100.00
2023-05-20T07:42:24.228Z,100.00
2023-05-20T07:45:02.437Z,100.00
2023-05-20T07:47:36.432Z,100.00
2023-05-20T07:50:12.668Z,100.00
2023-05-20T07:52:55.886Z,100.00
2023-05-20T07:55:35.962Z,100.00
2023-05-20T07:58:10.696Z,100.00
2023-05-20T08:00:46.037Z,100.00
2023-05-20T08:03:20.269Z,100.00
2023-05-20T08:06:04.803Z,100.00
2023-05-20T08:08:40.661Z,100.00
2023-05-20T08:11:19.180Z,100.00
2023-05-20T08:13:53.591Z,100.00
2023-05-20T08:16:28.875Z,100.00
2023-05-20T08:19:02.355Z,100.00
2023-05-20T08:21:36.721Z,100.00
2023-05-20T08:24:11.147Z,100.00
2023-05-20T08:26:46.715Z,100.00
2023-05-20T08:29:20.865Z,100.00
2023-05-20T08:31:55.067Z,100.00
2023-05-20T08:34:29.285Z,100.00
2023-05-20T08:37:03.373Z,100.00
2023-05-20T08:39:37.508Z,100.00
2023-05-20T08:42:14.065Z,100.00
2023-05-20T08:44:49.298Z,100.00
2023-05-20T08:47:25.086Z,100.00
2023-05-20T08:49:59.562Z,100.00
2023-05-20T08:52:36.867Z,100.00
2023-05-20T08:55:16.459Z,100.00
2023-05-20T08:57:50.188Z,100.00
2023-05-20T09:00:28.927Z,100.00
2023-05-20T09:03:04.393Z,100.00
2023-05-20T09:05:38.495Z,100.00
2023-05-20T09:08:14.196Z,100.00
2023-05-20T09:10:47.549Z,100.00
2023-05-20T09:13:23.489Z,100.00
2023-05-20T09:15:57.594Z,100.00
2023-05-20T09:18:32.119Z,100.00
2023-05-20T09:21:08.334Z,100.00
2023-05-20T09:23:42.169Z,100.00
2023-05-20T09:26:15.287Z,100.00
2023-05-20T09:28:49.164Z,100.00
2023-05-20T09:31:27.280Z,100.00
2023-05-20T09:34:03.370Z,100.00
2023-05-20T09:36:38.474Z,100.00
2023-05-20T09:39:16.155Z,100.00
2023-05-20T09:41:57.228Z,100.00
2023-05-20T09:44:31.882Z,100.00
2023-05-20T09:47:08.642Z,100.00
2023-05-20T09:49:44.979Z,100.00
2023-05-20T09:52:21.316Z,100.00
2023-05-20T09:54:56.645Z,100.00
2023-05-20T09:57:32.007Z,100.00
2023-05-20T10:00:08.743Z,100.00
2023-05-20T10:02:52.429Z,97.49
2023-05-20T10:05:30.961Z,98.74
2023-05-20T10:08:33.676Z,97.91
2023-05-20T10:11:17.076Z,95.45
2023-05-20T10:14:08.909Z,92.80
2023-05-20T10:16:49.820Z,92.05
2023-05-20T10:19:32.194Z,90.20
2023-05-20T10:22:08.909Z,89.44
2023-05-20T10:24:44.749Z,88.83
2023-05-20T10:27:19.495Z,87.53
2023-05-20T10:29:56.693Z,86.06
2023-05-20T10:32:32.484Z,84.14
2023-05-20T10:35:10.788Z,82.96
2023-05-20T10:37:48.413Z,82.02
2023-05-20T10:40:23.597Z,82.77
2023-05-20T10:43:01.286Z,82.63
2023-05-20T10:45:37.623Z,82.56
2023-05-20T10:48:22.166Z,83.05
2023-05-20T10:50:59.978Z,80.54
2023-05-20T10:53:40.713Z,76.54
2023-05-20T10:56:23.153Z,76.01
2023-05-20T10:58:57.804Z,74.76
2023-05-20T11:01:32.301Z,72.37
2023-05-20T11:04:07.181Z,70.26
2023-05-20T11:06:51.308Z,69.54
2023-05-20T11:09:26.046Z,68.53
2023-05-20T11:11:59.951Z,66.46
2023-05-20T11:14:33.576Z,67.57
2023-05-20T11:17:09.607Z,64.86
2023-05-20T11:19:43.117Z,63.47
2023-05-20T11:22:17.423Z,62.40
2023-05-20T11:24:54.004Z,62.54
2023-05-20T11:27:27.395Z,62.59
2023-05-20T11:30:00.593Z,63.66
2023-05-20T11:32:34.837Z,62.02
2023-05-20T11:35:21.090Z,59.67
2023-05-20T11:38:05.327Z,57.05
2023-05-20T11:40:49.772Z,56.53
2023-05-20T11:43:26.732Z,56.88
2023-05-20T11:46:00.506Z,56.26
2023-05-20T11:48:34.247Z,55.32
2023-05-20T11:51:10.088Z,53.81
2023-05-20T11:53:44.393Z,52.64
2023-05-20T11:56:18.109Z,52.84
2023-05-20T11:58:52.580Z,52.58
2023-05-20T12:01:26.367Z,51.45
2023-05-20T12:04:01.159Z,49.88
2023-05-20T12:06:35.234Z,47.26
2023-05-20T12:09:10.715Z,45.80
2023-05-20T12:11:45.347Z,45.49
2023-05-20T12:14:19.429Z,45.96
2023-05-20T12:16:53.898Z,46.25
2023-05-20T12:19:27.256Z,45.46
2023-05-20T12:22:01.342Z,45.83
2023-05-20T12:24:35.439Z,44.72
2023-05-20T12:27:09.565Z,44.18
2023-05-20T12:29:43.006Z,44.32
2023-05-20T12:32:16.826Z,43.46
2023-05-20T12:34:50.896Z,43.89
2023-05-20T12:37:25.095Z,42.94
2023-05-20T12:39:58.788Z,43.19
2023-05-20T12:42:33.213Z,43.08
2023-05-20T12:45:08.377Z,42.15
2023-05-20T12:47:43.372Z,42.12
2023-05-20T12:50:17.210Z,42.09
2023-05-20T12:52:51.090Z,42.25
2023-05-20T12:55:25.434Z,41.87
2023-05-20T12:57:59.518Z,42.14
2023-05-20T13:00:33.656Z,42.66
2023-05-20T13:03:07.714Z,42.70
2023-05-20T13:05:41.556Z,43.31
2023-05-20T13:08:15.555Z,42.26
2023-05-20T13:10:49.988Z,42.51
2023-05-20T13:13:23.578Z,42.53
2023-05-20T13:15:58.057Z,43.29
2023-05-20T13:18:32.205Z,43.77
2023-05-20T13:21:06.017Z,44.29
2023-05-20T13:23:40.533Z,45.05
2023-05-20T13:26:13.832Z,46.20
2023-05-20T13:28:48.154Z,46.67
2023-05-20T13:31:21.942Z,47.70
2023-05-20T13:33:59.558Z,48.47
2023-05-20T13:36:33.020Z,48.82
2023-05-20T13:39:06.963Z,48.50
2023-05-20T13:41:40.760Z,48.73
2023-05-20T13:44:14.968Z,48.93
2023-05-20T13:46:48.657Z,48.53
2023-05-20T13:49:25.673Z,48.70
2023-05-20T13:51:59.102Z,49.26
2023-05-20T13:54:32.674Z,49.84
2023-05-20T13:57:08.250Z,51.34
2023-05-20T13:59:42.005Z,53.07
2023-05-20T14:02:15.595Z,54.21
2023-05-20T14:04:49.508Z,55.65
2023-05-20T14:07:23.266Z,56.84
2023-05-20T14:09:57.726Z,58.54
2023-05-20T14:12:31.955Z,60.51
2023-05-20T14:15:06.012Z,62.69
2023-05-20T14:17:39.603Z,64.29
2023-05-20T14:20:15.557Z,66.38
2023-05-20T14:22:49.294Z,67.55
2023-05-20T14:25:23.489Z,68.66
2023-05-20T14:27:56.737Z,69.86
2023-05-20T14:30:30.495Z,71.27
2023-05-20T14:33:04.454Z,71.24
2023-05-20T14:35:38.502Z,72.10
2023-05-20T14:38:12.305Z,72.59
2023-05-20T14:40:46.387Z,73.84
2023-05-20T14:43:20.679Z,74.12
2023-05-20T14:45:54.686Z,75.15
2023-05-20T14:48:28.627Z,76.29
2023-05-20T14:51:02.504Z,76.78
2023-05-20T14:53:36.518Z,76.43
2023-05-20T14:56:10.728Z,76.43
2023-05-20T14:58:44.370Z,77.46
2023-05-20T15:01:18.732Z,77.43
2023-05-20T15:03:52.650Z,77.20
2023-05-20T15:06:26.766Z,77.43
2023-05-20T15:09:00.776Z,76.75
2023-05-20T15:11:34.282Z,76.49
2023-05-20T15:14:08.032Z,77.45
2023-05-20T15:16:42.385Z,77.74
2023-05-20T15:19:18.091Z,77.96
2023-05-20T15:21:53.163Z,78.86
2023-05-20T15:24:27.076Z,79.09
2023-05-20T15:27:00.486Z,79.51
2023-05-20T15:29:34.284Z,80.41
2023-05-20T15:32:10.371Z,80.01
2023-05-20T15:34:43.985Z,80.59
2023-05-20T15:37:18.052Z,80.29
2023-05-20T15:39:51.962Z,79.11
2023-05-20T15:42:25.970Z,78.57
2023-05-20T15:45:00.272Z,78.46
2023-05-20T15:47:34.062Z,78.19
2023-05-20T15:50:11.413Z,77.50
2023-05-20T15:52:45.321Z,77.74
2023-05-20T15:55:19.800Z,77.05
2023-05-20T15:57:53.198Z,77.07
2023-05-20T16:00:27.287Z,76.00
2023-05-20T16:03:01.834Z,75.14
2023-05-20T16:05:35.558Z,74.76
2023-05-20T16:08:09.927Z,74.85
2023-05-20T16:10:43.365Z,75.42
2023-05-20T16:13:17.867Z,74.66
2023-05-20T16:15:51.513Z,74.24
2023-05-20T16:18:26.102Z,74.27
2023-05-20T16:21:00.630Z,73.85
2023-05-20T16:23:34.495Z,73.68
2023-05-20T16:26:08.147Z,73.65
2023-05-20T16:28:42.159Z,74.06
2023-05-20T16:31:15.330Z,75.19
2023-05-20T16:33:49.288Z,75.93
2023-05-20T16:36:24.156Z,76.65
2023-05-20T16:38:58.369Z,77.59
2023-05-20T16:41:32.901Z,78.11
2023-05-20T16:44:06.717Z,77.67
2023-05-20T16:46:40.312Z,78.37
2023-05-20T16:49:15.109Z,78.76
2023-05-20T16:51:50.304Z,80.47
2023-05-20T16:54:23.977Z,81.40
2023-05-20T16:56:57.592Z,82.75
2023-05-20T16:59:31.693Z,83.39
2023-05-20T17:02:05.443Z,83.98
2023-05-20T17:04:39.121Z,85.63
2023-05-20T17:07:13.852Z,86.55
2023-05-20T17:09:48.032Z,86.77
2023-05-20T17:12:22.257Z,87.51
2023-05-20T17:14:56.418Z,88.67
2023-05-20T17:17:30.788Z,88.72
2023-05-20T17:20:05.834Z,89.71
2023-05-20T17:22:39.860Z,90.12
2023-05-20T17:25:14.821Z,90.56
2023-05-20T17:27:48.667Z,90.49
2023-05-20T17:30:21.967Z,91.21
2023-05-20T17:32:56.678Z,91.54
2023-05-20T17:35:31.866Z,91.73
2023-05-20T17:38:05.419Z,91.68
2023-05-20T17:40:39.465Z,92.31
2023-05-20T17:43:13.440Z,92.39
2023-05-20T17:45:47.884Z,93.01
2023-05-20T17:48:22.280Z,93.36
2023-05-20T17:50:58.355Z,93.81
2023-05-20T17:53:31.926Z,94.48
2023-05-20T17:56:06.558Z,94.48
2023-05-20T17:58:40.571Z,94.84
2023-05-20T18:01:15.364Z,94.98
2023-05-20T18:03:48.867Z,95.79
2023-05-20T18:06:23.277Z,96.19
2023-05-20T18:08:57.633Z,96.62
2023-05-20T18:11:32.944Z,96.85
2023-05-20T18:14:06.740Z,97.25
2023-05-20T18:16:40.589Z,98.26
2023-05-20T18:19:15.398Z,98.43
2023-05-20T18:21:49.433Z,99.83
2023-05-20T18:24:22.944Z,100.00
2023-05-20T18:26:55.850Z,100.00
2023-05-20T18:29:29.711Z,100.00
2023-05-20T18:32:03.706Z,100.00
2023-05-20T18:34:37.658Z,100.00
2023-05-20T18:37:12.238Z,100.00
2023-05-20T18:39:46.127Z,100.00
2023-05-20T18:42:19.761Z,100.00
2023-05-20T18:44:53.398Z,100.00
2023-05-20T18:47:28.499Z,100.00
2023-05-20T18:50:03.147Z,100.00
2023-05-20T18:52:36.752Z,100.00
2023-05-20T18:55:12.197Z,100.00
2023-05-20T18:57:45.277Z,100.00
2023-05-20T19:00:21.608Z,100.00
2023-05-20T19:02:58.332Z,100.00
2023-05-20T19:05:33.931Z,100.00
2023-05-20T19:08:09.590Z,100.00
2023-05-20T19:10:44.541Z,100.00
2023-05-20T19:13:18.538Z,100.00
2023-05-20T19:15:53.554Z,100.00
2023-05-20T19:18:28.213Z,100.00
2023-05-20T19:21:02.468Z,100.00
2023-05-20T19:23:36.483Z,100.00
2023-05-20T19:26:10.747Z,100.00
2023-05-20T19:28:44.416Z,100.00
2023-05-20T19:31:21.365Z,100.00
2023-05-20T19:33:55.301Z,100.00
2023-05-20T19:36:29.310Z,100.00
2023-05-20T19:39:03.728Z,100.00
2023-05-20T19:41:38.601Z,100.00
2023-05-20T19:44:12.490Z,100.00
2023-05-20T19:46:48.475Z,100.00
2023-05-20T19:49:22.437Z,100.00
2023-05-20T19:51:57.534Z,100.00
2023-05-20T19:54:31.772Z,100.00
2023-05-20T19:57:04.675Z,100.00
2023-05-20T19:59:39.084Z,100.00
2023-05-20T20:02:13.295Z,100.00
2023-05-20T20:04:47.510Z,100.00
2023-05-20T20:07:21.843Z,100.00
2023-05-20T20:09:56.449Z,100.00
2023-05-20T20:12:30.356Z,100.00
2023-05-20T20:15:04.368Z,100.00
2023-05-20T20:17:45.927Z,100.00
2023-05-20T20:20:20.317Z,100.00
2023-05-20T20:22:54.288Z,100.00
2023-05-20T20:25:28.294Z,100.00
2023-05-20T20:28:01.655Z,100.00
2023-05-20T20:30:34.976Z,100.00
2023-05-20T20:33:09.708Z,100.00
2023-05-20T20:35:43.838Z,100.00
2023-05-20T20:38:18.475Z,100.00
2023-05-20T20:40:54.101Z,100.00
2023-05-20T20:43:29.129Z,100.00
2023-05-20T20:46:03.697Z,100.00
2023-05-20T20:48:37.146Z,100.00
2023-05-20T20:51:11.360Z,100.00
2023-05-20T20:53:47.229Z,100.00
2023-05-20T20:56:20.459Z,100.00
2023-05-20T20:58:57.385Z,100.00
2023-05-20T21:01:31.450Z,100.00
2023-05-20T21:04:06.540Z,100.00
2023-05-20T21:06:40.460Z,100.00
2023-05-20T21:09:14.773Z,100.00
2023-05-20T21:11:50.399Z,100.00
2023-05-20T21:14:24.408Z,100.00
2023-05-20T21:16:58.224Z,100.00
2023-05-20T21:19:32.653Z,100.00
2023-05-20T21:22:08.171Z,100.00
2023-05-20T21:24:42.199Z,100.00
2023-05-20T21:27:15.750Z,100.00
2023-05-20T21:29:51.000Z,100.00
2023-05-20T21:32:24.844Z,100.00
2023-05-20T21:34:58.934Z,100.00
2023-05-20T21:37:33.365Z,100.00
2023-05-20T21:40:10.115Z,100.00
2023-05-20T21:42:45.183Z,100.00
2023-05-20T21:45:19.688Z,100.00
2023-05-20T21:47:53.411Z,100.00
2023-05-20T21:50:27.585Z,100.00
2023-05-20T21:53:00.783Z,100.00
2023-05-20T21:55:35.428Z,100.00
2023-05-20T21:58:09.804Z,100.00
2023-05-20T22:00:43.960Z,100.00
2023-05-20T22:03:18.079Z,100.00
2023-05-20T22:05:52.212Z,100.00
2023-05-20T22:08:28.435Z,100.00
2023-05-20T22:11:06.140Z,100.00
2023-05-20T22:13:41.804Z,100.00
2023-05-20T22:16:15.604Z,100.00
2023-05-20T22:18:49.900Z,100.00
2023-05-20T22:21:24.845Z,100.00
2023-05-20T22:23:58.512Z,100.00
2023-05-20T22:26:34.408Z,100.00
2023-05-20T22:29:08.968Z,100.00
2023-05-20T22:31:43.087Z,100.00
2023-05-20T22:34:16.729Z,100.00
2023-05-20T22:36:50.592Z,100.00
2023-05-20T22:39:25.778Z,100.00
2023-05-20T22:41:59.514Z,100.00
2023-05-20T22:44:33.648Z,100.00
2023-05-20T22:47:07.315Z,100.00
2023-05-20T22:49:42.476Z,100.00
2023-05-20T22:52:17.680Z,100.00
2023-05-20T22:54:51.175Z,100.00
2023-05-20T22:57:25.104Z,100.00
2023-05-20T22:59:58.437Z,100.00
2023-05-20T23:02:32.008Z,100.00
2023-05-20T23:05:06.898Z,100.00
2023-05-20T23:07:41.045Z,100.00
2023-05-20T23:10:15.321Z,100.00
2023-05-20T23:12:48.501Z,100.00
2023-05-20T23:15:25.620Z,100.00
2023-05-20T23:17:59.113Z,100.00
2023-05-20T23:20:32.381Z,100.00
2023-05-20T23:23:11.126Z,100.00
2023-05-20T23:25:46.394Z,100.00
2023-05-20T23:28:19.929Z,100.00
2023-05-20T23:30:53.251Z,100.00
2023-05-20T23:33:27.298Z,100.00
2023-05-20T23:36:01.328Z,100.00
2023-05-20T23:38:35.486Z,100.00
2023-05-20T23:41:10.180Z,100.00
2023-05-20T23:43:44.162Z,100.00
2023-05-20T23:46:18.739Z,100.00
2023-05-20T23:48:53.345Z,100.00
2023-05-20T23:51:28.097Z,100.00
2023-05-20T23:54:01.507Z,100.00
2023-05-20T23:56:34.860Z,100.00
2023-05-20T23:59:08.371Z,100.00
